sensor_id;sensor_type;location;lat;lon;timestamp;P1;durP1;ratioP1;P2;durP2;ratioP2
58242;SDS011;50118;53.232;8.252;2022-12-18T00:01:33;94.53;;;30.70;;
58242;SDS011;50118;53.232;8.252;2022-12-18T00:04:00;87.95;;;29.30;;
58242;SDS011;50118;53.232;8.252;2022-12-18T00:06:28;93.10;;;30.38;;
58242;SDS011;50118;53.232;8.252;2022-12-18T00:08:55;94.18;;;31.75;;
58242;SDS011;50118;53.232;8.252;2022-12-18T00:11:22;92.47;;;29.60;;
58242;SDS011;50118;53.232;8.252;2022-12-18T00:13:49;97.20;;;31.02;;
58242;SDS011;50118;53.232;8.252;2022-12-18T00:16:17;106.53;;;32.38;;
58242;SDS011;50118;53.232;8.252;2022-12-18T00:18:45;95.65;;;30.67;;
58242;SDS011;50118;53.232;8.252;2022-12-18T00:21:12;99.82;;;31.80;;
58242;SDS011;50118;53.232;8.252;2022-12-18T00:23:39;104.75;;;30.77;;
58242;SDS011;50118;53.232;8.252;2022-12-18T00:26:07;103.93;;;33.70;;
58242;SDS011;50118;53.232;8.252;2022-12-18T00:28:35;109.43;;;32.22;;
58242;SDS011;50118;53.232;8.252;2022-12-18T00:31:04;100.10;;;33.30;;
58242;SDS011;50118;53.232;8.252;2022-12-18T00:33:31;106.63;;;32.60;;
58242;SDS011;50118;53.232;8.252;2022-12-18T00:36:16;101.15;;;33.10;;
58242;SDS011;50118;53.232;8.252;2022-12-18T00:38:44;105.38;;;32.45;;
58242;SDS011;50118;53.232;8.252;2022-12-18T00:41:10;107.88;;;33.55;;
58242;SDS011;50118;53.232;8.252;2022-12-18T00:43:38;100.85;;;31.77;;
58242;SDS011;50118;53.232;8.252;2022-12-18T00:46:04;103.60;;;33.75;;
58242;SDS011;50118;53.232;8.252;2022-12-18T00:48:30;103.40;;;31.95;;
58242;SDS011;50118;53.232;8.252;2022-12-18T00:50:55;105.60;;;33.40;;
58242;SDS011;50118;53.232;8.252;2022-12-18T00:53:21;104.35;;;32.75;;
58242;SDS011;50118;53.232;8.252;2022-12-18T00:55:46;100.93;;;34.13;;
58242;SDS011;50118;53.232;8.252;2022-12-18T00:58:13;107.10;;;33.40;;
58242;SDS011;50118;53.232;8.252;2022-12-18T01:00:39;107.68;;;34.25;;
58242;SDS011;50118;53.232;8.252;2022-12-18T01:03:05;103.07;;;32.88;;
58242;SDS011;50118;53.232;8.252;2022-12-18T01:05:30;94.68;;;31.40;;
58242;SDS011;50118;53.232;8.252;2022-12-18T01:07:57;100.72;;;31.10;;
58242;SDS011;50118;53.232;8.252;2022-12-18T01:10:23;97.95;;;33.70;;
58242;SDS011;50118;53.232;8.252;2022-12-18T01:12:49;103.00;;;33.45;;
58242;SDS011;50118;53.232;8.252;2022-12-18T01:15:15;104.30;;;32.75;;
58242;SDS011;50118;53.232;8.252;2022-12-18T01:17:40;103.10;;;31.98;;
58242;SDS011;50118;53.232;8.252;2022-12-18T01:20:07;101.78;;;33.40;;
58242;SDS011;50118;53.232;8.252;2022-12-18T01:22:33;103.25;;;32.20;;
58242;SDS011;50118;53.232;8.252;2022-12-18T01:24:59;96.93;;;31.33;;
58242;SDS011;50118;53.232;8.252;2022-12-18T01:27:25;98.95;;;33.15;;
58242;SDS011;50118;53.232;8.252;2022-12-18T01:29:50;97.68;;;31.35;;
58242;SDS011;50118;53.232;8.252;2022-12-18T01:32:16;106.78;;;32.95;;
58242;SDS011;50118;53.232;8.252;2022-12-18T01:34:41;100.93;;;31.48;;
58242;SDS011;50118;53.232;8.252;2022-12-18T01:37:06;100.35;;;32.33;;
58242;SDS011;50118;53.232;8.252;2022-12-18T01:39:32;98.50;;;31.48;;
58242;SDS011;50118;53.232;8.252;2022-12-18T01:42:19;90.95;;;30.65;;
58242;SDS011;50118;53.232;8.252;2022-12-18T01:49:56;95.65;;;32.30;;
58242;SDS011;50118;53.232;8.252;2022-12-18T01:52:23;92.40;;;29.85;;
58242;SDS011;50118;53.232;8.252;2022-12-18T01:54:51;88.50;;;29.70;;
58242;SDS011;50118;53.232;8.252;2022-12-18T01:57:18;80.85;;;26.92;;
58242;SDS011;50118;53.232;8.252;2022-12-18T01:59:45;82.95;;;28.35;;
58242;SDS011;50118;53.232;8.252;2022-12-18T02:02:15;89.10;;;28.20;;
58242;SDS011;50118;53.232;8.252;2022-12-18T02:04:42;82.95;;;29.88;;
58242;SDS011;50118;53.232;8.252;2022-12-18T02:07:11;76.22;;;27.58;;
58242;SDS011;50118;53.232;8.252;2022-12-18T02:09:40;80.45;;;27.70;;
58242;SDS011;50118;53.232;8.252;2022-12-18T02:20:20;70.15;;;25.83;;
58242;SDS011;50118;53.232;8.252;2022-12-18T02:28:20;66.80;;;24.15;;
58242;SDS011;50118;53.232;8.252;2022-12-18T02:30:50;66.10;;;22.10;;
58242;SDS011;50118;53.232;8.252;2022-12-18T02:33:18;62.13;;;23.27;;
58242;SDS011;50118;53.232;8.252;2022-12-18T02:35:45;61.67;;;24.13;;
58242;SDS011;50118;53.232;8.252;2022-12-18T02:38:13;67.80;;;24.67;;
58242;SDS011;50118;53.232;8.252;2022-12-18T02:40:41;59.22;;;23.40;;
58242;SDS011;50118;53.232;8.252;2022-12-18T02:43:13;61.42;;;22.65;;
58242;SDS011;50118;53.232;8.252;2022-12-18T02:45:47;59.47;;;22.52;;
58242;SDS011;50118;53.232;8.252;2022-12-18T02:48:16;56.47;;;22.20;;
58242;SDS011;50118;53.232;8.252;2022-12-18T02:50:48;65.45;;;22.63;;
58242;SDS011;50118;53.232;8.252;2022-12-18T02:53:49;60.53;;;20.98;;
58242;SDS011;50118;53.232;8.252;2022-12-18T02:56:22;55.03;;;21.67;;
58242;SDS011;50118;53.232;8.252;2022-12-18T02:58:57;57.13;;;21.85;;
58242;SDS011;50118;53.232;8.252;2022-12-18T03:04:26;51.83;;;20.48;;
58242;SDS011;50118;53.232;8.252;2022-12-18T03:07:04;60.22;;;21.45;;
58242;SDS011;50118;53.232;8.252;2022-12-18T03:09:35;49.55;;;20.80;;
58242;SDS011;50118;53.232;8.252;2022-12-18T03:12:14;53.65;;;20.23;;
58242;SDS011;50118;53.232;8.252;2022-12-18T03:15:04;57.30;;;20.73;;
58242;SDS011;50118;53.232;8.252;2022-12-18T03:17:35;57.03;;;20.25;;
58242;SDS011;50118;53.232;8.252;2022-12-18T03:20:09;52.50;;;20.92;;
58242;SDS011;50118;53.232;8.252;2022-12-18T03:22:42;50.50;;;19.70;;
58242;SDS011;50118;53.232;8.252;2022-12-18T03:25:10;50.45;;;19.02;;
58242;SDS011;50118;53.232;8.252;2022-12-18T03:27:40;51.17;;;18.52;;
58242;SDS011;50118;53.232;8.252;2022-12-18T03:30:09;46.92;;;19.08;;
58242;SDS011;50118;53.232;8.252;2022-12-18T03:35:33;45.35;;;18.75;;
58242;SDS011;50118;53.232;8.252;2022-12-18T03:38:06;47.20;;;19.23;;
58242;SDS011;50118;53.232;8.252;2022-12-18T03:40:39;47.53;;;18.63;;
58242;SDS011;50118;53.232;8.252;2022-12-18T03:43:11;44.08;;;17.40;;
58242;SDS011;50118;53.232;8.252;2022-12-18T03:46:06;47.47;;;18.50;;
58242;SDS011;50118;53.232;8.252;2022-12-18T03:48:59;45.95;;;18.98;;
58242;SDS011;50118;53.232;8.252;2022-12-18T03:51:50;47.60;;;18.70;;
58242;SDS011;50118;53.232;8.252;2022-12-18T03:54:22;48.45;;;18.98;;
58242;SDS011;50118;53.232;8.252;2022-12-18T03:56:51;39.30;;;17.25;;
58242;SDS011;50118;53.232;8.252;2022-12-18T03:59:25;37.92;;;16.25;;
58242;SDS011;50118;53.232;8.252;2022-12-18T04:01:53;45.30;;;18.48;;
58242;SDS011;50118;53.232;8.252;2022-12-18T04:04:20;45.08;;;18.92;;
58242;SDS011;50118;53.232;8.252;2022-12-18T04:06:47;42.78;;;16.88;;
58242;SDS011;50118;53.232;8.252;2022-12-18T04:09:14;45.50;;;18.17;;
58242;SDS011;50118;53.232;8.252;2022-12-18T04:11:41;39.95;;;18.00;;
58242;SDS011;50118;53.232;8.252;2022-12-18T04:14:08;47.72;;;18.10;;
58242;SDS011;50118;53.232;8.252;2022-12-18T04:16:34;41.50;;;16.73;;
58242;SDS011;50118;53.232;8.252;2022-12-18T04:18:59;47.17;;;20.23;;
58242;SDS011;50118;53.232;8.252;2022-12-18T04:21:25;47.90;;;18.65;;
58242;SDS011;50118;53.232;8.252;2022-12-18T04:23:50;45.13;;;18.23;;
58242;SDS011;50118;53.232;8.252;2022-12-18T04:26:16;42.70;;;18.58;;
58242;SDS011;50118;53.232;8.252;2022-12-18T04:28:41;43.22;;;17.60;;
58242;SDS011;50118;53.232;8.252;2022-12-18T04:31:06;41.33;;;17.58;;
58242;SDS011;50118;53.232;8.252;2022-12-18T04:33:32;42.38;;;18.73;;
58242;SDS011;50118;53.232;8.252;2022-12-18T04:35:57;42.95;;;19.80;;
58242;SDS011;50118;53.232;8.252;2022-12-18T04:38:23;47.75;;;19.35;;
58242;SDS011;50118;53.232;8.252;2022-12-18T04:40:48;41.70;;;17.95;;
58242;SDS011;50118;53.232;8.252;2022-12-18T04:43:14;40.45;;;17.60;;
58242;SDS011;50118;53.232;8.252;2022-12-18T04:45:39;38.00;;;18.55;;
58242;SDS011;50118;53.232;8.252;2022-12-18T04:48:05;42.88;;;17.13;;
58242;SDS011;50118;53.232;8.252;2022-12-18T04:50:31;41.80;;;18.15;;
58242;SDS011;50118;53.232;8.252;2022-12-18T04:52:57;40.17;;;18.23;;
58242;SDS011;50118;53.232;8.252;2022-12-18T04:55:26;38.38;;;17.10;;
58242;SDS011;50118;53.232;8.252;2022-12-18T04:57:51;38.15;;;16.58;;
58242;SDS011;50118;53.232;8.252;2022-12-18T05:00:17;38.22;;;16.67;;
58242;SDS011;50118;53.232;8.252;2022-12-18T05:02:43;35.03;;;16.80;;
58242;SDS011;50118;53.232;8.252;2022-12-18T05:05:09;33.60;;;17.13;;
58242;SDS011;50118;53.232;8.252;2022-12-18T05:07:34;36.17;;;16.40;;
58242;SDS011;50118;53.232;8.252;2022-12-18T05:09:59;35.72;;;16.25;;
58242;SDS011;50118;53.232;8.252;2022-12-18T05:12:25;36.85;;;16.15;;
58242;SDS011;50118;53.232;8.252;2022-12-18T05:14:51;31.00;;;15.48;;
58242;SDS011;50118;53.232;8.252;2022-12-18T05:17:16;37.17;;;16.95;;
58242;SDS011;50118;53.232;8.252;2022-12-18T05:19:42;31.73;;;15.48;;
58242;SDS011;50118;53.232;8.252;2022-12-18T05:22:08;33.17;;;16.27;;
58242;SDS011;50118;53.232;8.252;2022-12-18T05:24:33;36.53;;;15.63;;
58242;SDS011;50118;53.232;8.252;2022-12-18T05:26:59;32.97;;;15.07;;
58242;SDS011;50118;53.232;8.252;2022-12-18T05:29:25;33.80;;;16.05;;
58242;SDS011;50118;53.232;8.252;2022-12-18T05:34:38;34.25;;;15.82;;
58242;SDS011;50118;53.232;8.252;2022-12-18T05:37:03;35.55;;;15.43;;
58242;SDS011;50118;53.232;8.252;2022-12-18T05:39:28;31.08;;;15.30;;
58242;SDS011;50118;53.232;8.252;2022-12-18T05:41:54;27.58;;;14.73;;
58242;SDS011;50118;53.232;8.252;2022-12-18T05:44:19;34.28;;;15.30;;
58242;SDS011;50118;53.232;8.252;2022-12-18T05:46:45;32.80;;;15.25;;
58242;SDS011;50118;53.232;8.252;2022-12-18T05:49:10;31.40;;;14.70;;
58242;SDS011;50118;53.232;8.252;2022-12-18T05:51:36;30.73;;;14.73;;
58242;SDS011;50118;53.232;8.252;2022-12-18T05:54:01;30.95;;;13.38;;
58242;SDS011;50118;53.232;8.252;2022-12-18T05:56:27;30.17;;;14.05;;
58242;SDS011;50118;53.232;8.252;2022-12-18T05:58:52;27.27;;;13.48;;
58242;SDS011;50118;53.232;8.252;2022-12-18T06:01:21;24.73;;;12.27;;
58242;SDS011;50118;53.232;8.252;2022-12-18T06:03:49;24.63;;;13.27;;
58242;SDS011;50118;53.232;8.252;2022-12-18T06:06:24;26.35;;;14.07;;
58242;SDS011;50118;53.232;8.252;2022-12-18T06:08:52;30.02;;;13.65;;
58242;SDS011;50118;53.232;8.252;2022-12-18T06:11:19;29.00;;;12.90;;
58242;SDS011;50118;53.232;8.252;2022-12-18T06:13:49;24.35;;;12.50;;
58242;SDS011;50118;53.232;8.252;2022-12-18T06:16:15;26.30;;;13.65;;
58242;SDS011;50118;53.232;8.252;2022-12-18T06:18:40;29.42;;;13.57;;
58242;SDS011;50118;53.232;8.252;2022-12-18T06:21:06;30.50;;;13.88;;
58242;SDS011;50118;53.232;8.252;2022-12-18T06:23:32;26.48;;;12.75;;
58242;SDS011;50118;53.232;8.252;2022-12-18T06:25:57;29.60;;;13.73;;
58242;SDS011;50118;53.232;8.252;2022-12-18T06:28:23;31.17;;;13.80;;
58242;SDS011;50118;53.232;8.252;2022-12-18T06:30:48;27.08;;;13.23;;
58242;SDS011;50118;53.232;8.252;2022-12-18T06:33:15;27.88;;;14.60;;
58242;SDS011;50118;53.232;8.252;2022-12-18T06:35:41;31.02;;;13.02;;
58242;SDS011;50118;53.232;8.252;2022-12-18T06:38:07;25.23;;;13.02;;
58242;SDS011;50118;53.232;8.252;2022-12-18T06:40:32;27.08;;;13.10;;
58242;SDS011;50118;53.232;8.252;2022-12-18T06:42:57;25.92;;;13.25;;
58242;SDS011;50118;53.232;8.252;2022-12-18T06:45:23;30.20;;;13.85;;
58242;SDS011;50118;53.232;8.252;2022-12-18T06:47:49;23.65;;;12.07;;
58242;SDS011;50118;53.232;8.252;2022-12-18T06:50:15;26.30;;;13.15;;
58242;SDS011;50118;53.232;8.252;2022-12-18T06:52:40;27.35;;;12.63;;
58242;SDS011;50118;53.232;8.252;2022-12-18T06:55:09;26.95;;;12.70;;
58242;SDS011;50118;53.232;8.252;2022-12-18T06:57:37;24.05;;;12.82;;
58242;SDS011;50118;53.232;8.252;2022-12-18T07:00:03;25.85;;;12.15;;
58242;SDS011;50118;53.232;8.252;2022-12-18T07:02:30;27.13;;;12.75;;
58242;SDS011;50118;53.232;8.252;2022-12-18T07:04:56;25.88;;;12.52;;
58242;SDS011;50118;53.232;8.252;2022-12-18T07:07:21;31.88;;;14.40;;
58242;SDS011;50118;53.232;8.252;2022-12-18T07:09:48;28.83;;;12.48;;
58242;SDS011;50118;53.232;8.252;2022-12-18T07:12:14;26.38;;;12.60;;
58242;SDS011;50118;53.232;8.252;2022-12-18T07:14:40;26.85;;;12.73;;
58242;SDS011;50118;53.232;8.252;2022-12-18T07:17:05;29.13;;;13.52;;
58242;SDS011;50118;53.232;8.252;2022-12-18T07:19:31;29.60;;;13.00;;
58242;SDS011;50118;53.232;8.252;2022-12-18T07:21:56;26.05;;;14.27;;
58242;SDS011;50118;53.232;8.252;2022-12-18T07:24:22;25.80;;;12.50;;
58242;SDS011;50118;53.232;8.252;2022-12-18T07:26:48;24.67;;;12.80;;
58242;SDS011;50118;53.232;8.252;2022-12-18T07:29:13;25.05;;;12.85;;
58242;SDS011;50118;53.232;8.252;2022-12-18T07:31:39;26.40;;;12.02;;
58242;SDS011;50118;53.232;8.252;2022-12-18T07:34:04;24.25;;;11.60;;
58242;SDS011;50118;53.232;8.252;2022-12-18T07:36:30;23.05;;;12.02;;
58242;SDS011;50118;53.232;8.252;2022-12-18T07:38:55;23.17;;;11.57;;
58242;SDS011;50118;53.232;8.252;2022-12-18T07:41:21;26.15;;;12.50;;
58242;SDS011;50118;53.232;8.252;2022-12-18T07:43:47;24.38;;;11.00;;
58242;SDS011;50118;53.232;8.252;2022-12-18T07:46:13;26.10;;;12.68;;
58242;SDS011;50118;53.232;8.252;2022-12-18T07:48:40;27.02;;;13.18;;
58242;SDS011;50118;53.232;8.252;2022-12-18T07:51:06;23.92;;;12.07;;
58242;SDS011;50118;53.232;8.252;2022-12-18T07:53:33;27.85;;;12.82;;
58242;SDS011;50118;53.232;8.252;2022-12-18T07:56:01;25.35;;;11.73;;
58242;SDS011;50118;53.232;8.252;2022-12-18T07:58:29;22.77;;;12.88;;
58242;SDS011;50118;53.232;8.252;2022-12-18T08:01:01;23.27;;;12.73;;
58242;SDS011;50118;53.232;8.252;2022-12-18T08:03:31;24.33;;;13.38;;
58242;SDS011;50118;53.232;8.252;2022-12-18T08:06:00;26.48;;;13.10;;
58242;SDS011;50118;53.232;8.252;2022-12-18T08:08:26;25.27;;;12.98;;
58242;SDS011;50118;53.232;8.252;2022-12-18T08:10:52;23.17;;;12.30;;
58242;SDS011;50118;53.232;8.252;2022-12-18T08:13:18;20.73;;;12.45;;
58242;SDS011;50118;53.232;8.252;2022-12-18T08:15:43;25.65;;;12.55;;
58242;SDS011;50118;53.232;8.252;2022-12-18T08:18:09;21.55;;;11.43;;
58242;SDS011;50118;53.232;8.252;2022-12-18T08:20:34;24.55;;;12.65;;
58242;SDS011;50118;53.232;8.252;2022-12-18T08:22:59;23.92;;;12.50;;
58242;SDS011;50118;53.232;8.252;2022-12-18T08:25:28;24.77;;;12.82;;
58242;SDS011;50118;53.232;8.252;2022-12-18T08:27:54;22.90;;;12.77;;
58242;SDS011;50118;53.232;8.252;2022-12-18T08:30:21;26.63;;;14.60;;
58242;SDS011;50118;53.232;8.252;2022-12-18T08:32:49;26.08;;;13.73;;
58242;SDS011;50118;53.232;8.252;2022-12-18T08:35:19;21.13;;;11.65;;
58242;SDS011;50118;53.232;8.252;2022-12-18T08:37:45;24.85;;;13.60;;
58242;SDS011;50118;53.232;8.252;2022-12-18T08:40:14;24.15;;;12.77;;
58242;SDS011;50118;53.232;8.252;2022-12-18T08:42:40;24.65;;;12.82;;
58242;SDS011;50118;53.232;8.252;2022-12-18T08:45:33;19.25;;;12.27;;
58242;SDS011;50118;53.232;8.252;2022-12-18T08:47:59;21.27;;;11.93;;
58242;SDS011;50118;53.232;8.252;2022-12-18T08:50:28;20.92;;;11.38;;
58242;SDS011;50118;53.232;8.252;2022-12-18T08:52:53;21.67;;;11.95;;
58242;SDS011;50118;53.232;8.252;2022-12-18T08:55:19;21.85;;;12.05;;
58242;SDS011;50118;53.232;8.252;2022-12-18T08:57:47;37.45;;;18.05;;
58242;SDS011;50118;53.232;8.252;2022-12-18T09:00:14;20.48;;;10.10;;
58242;SDS011;50118;53.232;8.252;2022-12-18T09:02:40;17.73;;;10.68;;
58242;SDS011;50118;53.232;8.252;2022-12-18T09:05:06;16.92;;;10.07;;
58242;SDS011;50118;53.232;8.252;2022-12-18T09:07:34;18.90;;;10.30;;
58242;SDS011;50118;53.232;8.252;2022-12-18T09:09:59;44.13;;;21.83;;
58242;SDS011;50118;53.232;8.252;2022-12-18T09:12:25;32.30;;;16.15;;
58242;SDS011;50118;53.232;8.252;2022-12-18T09:14:51;87.72;;;44.38;;
58242;SDS011;50118;53.232;8.252;2022-12-18T09:17:16;26.48;;;14.00;;
58242;SDS011;50118;53.232;8.252;2022-12-18T09:19:41;18.33;;;10.10;;
58242;SDS011;50118;53.232;8.252;2022-12-18T09:22:07;29.65;;;17.98;;
58242;SDS011;50118;53.232;8.252;2022-12-18T09:24:32;22.48;;;13.27;;
58242;SDS011;50118;53.232;8.252;2022-12-18T09:26:58;22.08;;;13.65;;
58242;SDS011;50118;53.232;8.252;2022-12-18T09:29:23;18.90;;;12.65;;
58242;SDS011;50118;53.232;8.252;2022-12-18T09:31:49;27.60;;;19.30;;
58242;SDS011;50118;53.232;8.252;2022-12-18T09:34:15;20.23;;;13.00;;
58242;SDS011;50118;53.232;8.252;2022-12-18T09:36:41;19.17;;;11.95;;
58242;SDS011;50118;53.232;8.252;2022-12-18T09:39:07;19.27;;;11.45;;
58242;SDS011;50118;53.232;8.252;2022-12-18T09:41:50;18.23;;;11.85;;
58242;SDS011;50118;53.232;8.252;2022-12-18T09:44:25;20.40;;;11.70;;
58242;SDS011;50118;53.232;8.252;2022-12-18T09:50:05;19.48;;;11.30;;
58242;SDS011;50118;53.232;8.252;2022-12-18T09:52:53;20.48;;;10.80;;
58242;SDS011;50118;53.232;8.252;2022-12-18T09:55:27;15.85;;;9.80;;
58242;SDS011;50118;53.232;8.252;2022-12-18T09:58:41;16.38;;;9.55;;
58242;SDS011;50118;53.232;8.252;2022-12-18T10:00:58;21.58;;;12.60;;
58242;SDS011;50118;53.232;8.252;2022-12-18T10:03:24;20.40;;;11.95;;
58242;SDS011;50118;53.232;8.252;2022-12-18T10:06:04;17.42;;;10.52;;
58242;SDS011;50118;53.232;8.252;2022-12-18T10:11:27;15.82;;;9.25;;
58242;SDS011;50118;53.232;8.252;2022-12-18T10:14:06;16.17;;;8.85;;
58242;SDS011;50118;53.232;8.252;2022-12-18T10:19:36;16.35;;;9.90;;
58242;SDS011;50118;53.232;8.252;2022-12-18T10:22:14;16.77;;;10.13;;
58242;SDS011;50118;53.232;8.252;2022-12-18T10:25:02;15.38;;;9.07;;
58242;SDS011;50118;53.232;8.252;2022-12-18T10:27:38;17.83;;;10.25;;
58242;SDS011;50118;53.232;8.252;2022-12-18T10:30:11;20.23;;;10.27;;
58242;SDS011;50118;53.232;8.252;2022-12-18T10:32:40;15.55;;;9.68;;
58242;SDS011;50118;53.232;8.252;2022-12-18T10:35:12;16.88;;;10.32;;
58242;SDS011;50118;53.232;8.252;2022-12-18T10:38:02;19.98;;;11.40;;
58242;SDS011;50118;53.232;8.252;2022-12-18T10:43:20;19.13;;;10.57;;
58242;SDS011;50118;53.232;8.252;2022-12-18T10:46:24;19.13;;;11.27;;
58242;SDS011;50118;53.232;8.252;2022-12-18T10:51:24;21.48;;;12.68;;
58242;SDS011;50118;53.232;8.252;2022-12-18T10:56:29;19.50;;;12.13;;
58242;SDS011;50118;53.232;8.252;2022-12-18T10:59:00;22.77;;;13.45;;
58242;SDS011;50118;53.232;8.252;2022-12-18T11:01:26;22.98;;;13.32;;
58242;SDS011;50118;53.232;8.252;2022-12-18T11:06:20;24.27;;;14.30;;
58242;SDS011;50118;53.232;8.252;2022-12-18T11:08:59;25.10;;;14.05;;
58242;SDS011;50118;53.232;8.252;2022-12-18T11:11:26;21.65;;;13.88;;
58242;SDS011;50118;53.232;8.252;2022-12-18T11:14:03;18.80;;;11.40;;
58242;SDS011;50118;53.232;8.252;2022-12-18T11:16:44;20.40;;;12.23;;
58242;SDS011;50118;53.232;8.252;2022-12-18T11:19:21;22.15;;;13.23;;
58242;SDS011;50118;53.232;8.252;2022-12-18T11:21:57;19.35;;;11.68;;
58242;SDS011;50118;53.232;8.252;2022-12-18T11:24:26;20.65;;;12.45;;
58242;SDS011;50118;53.232;8.252;2022-12-18T11:26:59;23.60;;;14.30;;
58242;SDS011;50118;53.232;8.252;2022-12-18T11:29:30;21.13;;;11.65;;
58242;SDS011;50118;53.232;8.252;2022-12-18T11:35:11;17.27;;;11.75;;
58242;SDS011;50118;53.232;8.252;2022-12-18T11:37:57;19.58;;;11.48;;
58242;SDS011;50118;53.232;8.252;2022-12-18T11:40:33;20.77;;;12.32;;
58242;SDS011;50118;53.232;8.252;2022-12-18T11:43:22;20.58;;;11.65;;
58242;SDS011;50118;53.232;8.252;2022-12-18T11:45:53;19.10;;;11.57;;
58242;SDS011;50118;53.232;8.252;2022-12-18T11:48:32;21.98;;;13.63;;
58242;SDS011;50118;53.232;8.252;2022-12-18T11:51:02;21.55;;;12.82;;
58242;SDS011;50118;53.232;8.252;2022-12-18T11:53:33;22.70;;;13.55;;
58242;SDS011;50118;53.232;8.252;2022-12-18T12:03:56;18.45;;;12.77;;
58242;SDS011;50118;53.232;8.252;2022-12-18T12:17:41;24.60;;;14.63;;
58242;SDS011;50118;53.232;8.252;2022-12-18T12:23:05;22.17;;;13.27;;
58242;SDS011;50118;53.232;8.252;2022-12-18T12:34:00;23.90;;;15.05;;
58242;SDS011;50118;53.232;8.252;2022-12-18T12:36:37;22.75;;;13.73;;
58242;SDS011;50118;53.232;8.252;2022-12-18T12:39:14;26.55;;;14.82;;
58242;SDS011;50118;53.232;8.252;2022-12-18T12:41:46;23.52;;;14.15;;
58242;SDS011;50118;53.232;8.252;2022-12-18T12:44:37;23.67;;;13.82;;
58242;SDS011;50118;53.232;8.252;2022-12-18T12:47:30;20.98;;;13.88;;
58242;SDS011;50118;53.232;8.252;2022-12-18T12:50:01;22.77;;;12.13;;
58242;SDS011;50118;53.232;8.252;2022-12-18T12:55:25;28.25;;;16.45;;
58242;SDS011;50118;53.232;8.252;2022-12-18T13:00:33;28.67;;;15.40;;
58242;SDS011;50118;53.232;8.252;2022-12-18T13:03:28;22.38;;;12.77;;
58242;SDS011;50118;53.232;8.252;2022-12-18T13:06:02;19.38;;;12.30;;
58242;SDS011;50118;53.232;8.252;2022-12-18T13:08:58;19.10;;;11.50;;
58242;SDS011;50118;53.232;8.252;2022-12-18T13:11:30;21.23;;;14.40;;
58242;SDS011;50118;53.232;8.252;2022-12-18T13:14:32;18.70;;;12.10;;
58242;SDS011;50118;53.232;8.252;2022-12-18T13:19:42;20.05;;;12.20;;
58242;SDS011;50118;53.232;8.252;2022-12-18T13:22:28;23.00;;;13.88;;
58242;SDS011;50118;53.232;8.252;2022-12-18T13:24:59;40.53;;;19.70;;
58242;SDS011;50118;53.232;8.252;2022-12-18T13:38:20;21.52;;;12.48;;
58242;SDS011;50118;53.232;8.252;2022-12-18T13:43:44;21.05;;;12.98;;
58242;SDS011;50118;53.232;8.252;2022-12-18T13:46:23;17.85;;;12.02;;
58242;SDS011;50118;53.232;8.252;2022-12-18T13:51:48;20.95;;;12.07;;
58242;SDS011;50118;53.232;8.252;2022-12-18T13:56:49;18.65;;;11.45;;
58242;SDS011;50118;53.232;8.252;2022-12-18T13:59:22;17.60;;;10.95;;
58242;SDS011;50118;53.232;8.252;2022-12-18T14:01:56;17.38;;;10.50;;
58242;SDS011;50118;53.232;8.252;2022-12-18T14:04:27;23.73;;;13.10;;
58242;SDS011;50118;53.232;8.252;2022-12-18T14:07:07;32.17;;;18.55;;
58242;SDS011;50118;53.232;8.252;2022-12-18T14:10:21;18.35;;;11.15;;
58242;SDS011;50118;53.232;8.252;2022-12-18T14:12:28;31.52;;;16.35;;
58242;SDS011;50118;53.232;8.252;2022-12-18T14:17:56;35.97;;;21.23;;
58242;SDS011;50118;53.232;8.252;2022-12-18T14:20:24;17.27;;;11.30;;
58242;SDS011;50118;53.232;8.252;2022-12-18T14:22:51;21.05;;;11.50;;
58242;SDS011;50118;53.232;8.252;2022-12-18T14:25:18;30.83;;;16.75;;
58242;SDS011;50118;53.232;8.252;2022-12-18T14:27:47;20.58;;;12.65;;
58242;SDS011;50118;53.232;8.252;2022-12-18T14:30:25;22.20;;;13.35;;
58242;SDS011;50118;53.232;8.252;2022-12-18T14:33:01;20.40;;;12.63;;
58242;SDS011;50118;53.232;8.252;2022-12-18T14:35:28;20.33;;;11.80;;
58242;SDS011;50118;53.232;8.252;2022-12-18T14:37:53;18.13;;;11.00;;
58242;SDS011;50118;53.232;8.252;2022-12-18T14:40:32;24.90;;;12.88;;
58242;SDS011;50118;53.232;8.252;2022-12-18T14:42:57;18.25;;;10.60;;
58242;SDS011;50118;53.232;8.252;2022-12-18T14:45:36;33.97;;;18.55;;
58242;SDS011;50118;53.232;8.252;2022-12-18T14:48:16;29.77;;;15.75;;
58242;SDS011;50118;53.232;8.252;2022-12-18T14:50:44;30.75;;;15.98;;
58242;SDS011;50118;53.232;8.252;2022-12-18T14:53:19;20.98;;;12.45;;
58242;SDS011;50118;53.232;8.252;2022-12-18T14:55:48;24.40;;;13.27;;
58242;SDS011;50118;53.232;8.252;2022-12-18T14:58:14;20.92;;;12.88;;
58242;SDS011;50118;53.232;8.252;2022-12-18T15:00:41;19.90;;;12.63;;
58242;SDS011;50118;53.232;8.252;2022-12-18T15:03:07;20.20;;;12.48;;
58242;SDS011;50118;53.232;8.252;2022-12-18T15:05:34;19.67;;;11.45;;
58242;SDS011;50118;53.232;8.252;2022-12-18T15:08:01;20.77;;;12.75;;
58242;SDS011;50118;53.232;8.252;2022-12-18T15:10:28;20.80;;;11.70;;
58242;SDS011;50118;53.232;8.252;2022-12-18T15:18:03;23.65;;;13.98;;
58242;SDS011;50118;53.232;8.252;2022-12-18T15:20:56;24.85;;;14.05;;
58242;SDS011;50118;53.232;8.252;2022-12-18T15:23:34;30.00;;;16.17;;
58242;SDS011;50118;53.232;8.252;2022-12-18T15:26:04;21.73;;;13.55;;
58242;SDS011;50118;53.232;8.252;2022-12-18T15:28:47;24.58;;;14.98;;
58242;SDS011;50118;53.232;8.252;2022-12-18T15:33:42;24.45;;;14.10;;
58242;SDS011;50118;53.232;8.252;2022-12-18T15:36:11;20.95;;;12.32;;
58242;SDS011;50118;53.232;8.252;2022-12-18T15:38:39;19.10;;;11.43;;
58242;SDS011;50118;53.232;8.252;2022-12-18T15:41:04;19.73;;;11.25;;
58242;SDS011;50118;53.232;8.252;2022-12-18T15:43:30;20.33;;;12.27;;
58242;SDS011;50118;53.232;8.252;2022-12-18T15:46:16;20.58;;;12.25;;
58242;SDS011;50118;53.232;8.252;2022-12-18T15:48:47;20.67;;;11.45;;
58242;SDS011;50118;53.232;8.252;2022-12-18T15:51:33;16.65;;;10.25;;
58242;SDS011;50118;53.232;8.252;2022-12-18T15:54:02;20.75;;;10.93;;
58242;SDS011;50118;53.232;8.252;2022-12-18T15:56:29;24.98;;;13.82;;
58242;SDS011;50118;53.232;8.252;2022-12-18T15:59:15;20.17;;;11.90;;
58242;SDS011;50118;53.232;8.252;2022-12-18T16:01:45;20.40;;;12.30;;
58242;SDS011;50118;53.232;8.252;2022-12-18T16:04:13;22.95;;;13.88;;
58242;SDS011;50118;53.232;8.252;2022-12-18T16:06:41;19.40;;;11.23;;
58242;SDS011;50118;53.232;8.252;2022-12-18T16:09:06;16.23;;;10.60;;
58242;SDS011;50118;53.232;8.252;2022-12-18T16:11:32;17.85;;;10.70;;
58242;SDS011;50118;53.232;8.252;2022-12-18T16:14:17;16.67;;;10.52;;
58242;SDS011;50118;53.232;8.252;2022-12-18T16:16:44;21.33;;;12.88;;
58242;SDS011;50118;53.232;8.252;2022-12-18T16:19:18;18.58;;;11.90;;
58242;SDS011;50118;53.232;8.252;2022-12-18T16:21:45;16.52;;;10.88;;
58242;SDS011;50118;53.232;8.252;2022-12-18T16:24:19;18.50;;;10.60;;
58242;SDS011;50118;53.232;8.252;2022-12-18T16:26:47;18.50;;;11.68;;
58242;SDS011;50118;53.232;8.252;2022-12-18T16:29:13;15.48;;;9.90;;
58242;SDS011;50118;53.232;8.252;2022-12-18T16:31:39;14.88;;;9.95;;
58242;SDS011;50118;53.232;8.252;2022-12-18T16:34:18;15.27;;;10.40;;
58242;SDS011;50118;53.232;8.252;2022-12-18T16:36:47;15.93;;;9.90;;